sensor_id;sensor_type;location;lat;lon;timestamp;P1;durP1;ratioP1;P2;durP2;ratioP2
69087;SDS011;56190;43.562;5.036;2023-02-15T00:01:30;24.70;;;22.13;;
69087;SDS011;56190;43.562;5.036;2023-02-15T00:03:56;22.90;;;20.45;;
69087;SDS011;56190;43.562;5.036;2023-02-15T00:06:21;23.70;;;21.15;;
69087;SDS011;56190;43.562;5.036;2023-02-15T00:08:46;24.13;;;21.63;;
69087;SDS011;56190;43.562;5.036;2023-02-15T00:11:13;24.95;;;21.23;;
69087;SDS011;56190;43.562;5.036;2023-02-15T00:13:38;25.08;;;22.35;;
69087;SDS011;56190;43.562;5.036;2023-02-15T00:16:10;29.42;;;26.33;;
69087;SDS011;56190;43.562;5.036;2023-02-15T00:18:36;28.95;;;25.77;;
69087;SDS011;56190;43.562;5.036;2023-02-15T00:21:05;30.70;;;27.45;;
69087;SDS011;56190;43.562;5.036;2023-02-15T00:23:30;30.48;;;27.25;;
69087;SDS011;56190;43.562;5.036;2023-02-15T00:26:08;33.47;;;29.90;;
69087;SDS011;56190;43.562;5.036;2023-02-15T00:28:34;33.38;;;29.17;;
69087;SDS011;56190;43.562;5.036;2023-02-15T00:31:07;32.25;;;27.40;;
69087;SDS011;56190;43.562;5.036;2023-02-15T00:33:32;34.50;;;29.70;;
69087;SDS011;56190;43.562;5.036;2023-02-15T00:35:58;36.17;;;31.88;;
69087;SDS011;56190;43.562;5.036;2023-02-15T00:38:23;33.65;;;29.70;;
69087;SDS011;56190;43.562;5.036;2023-02-15T00:40:53;36.28;;;31.95;;
69087;SDS011;56190;43.562;5.036;2023-02-15T00:43:18;36.25;;;30.67;;
69087;SDS011;56190;43.562;5.036;2023-02-15T00:45:44;39.28;;;32.72;;
69087;SDS011;56190;43.562;5.036;2023-02-15T00:48:10;35.58;;;30.67;;
69087;SDS011;56190;43.562;5.036;2023-02-15T00:50:35;32.05;;;28.30;;
69087;SDS011;56190;43.562;5.036;2023-02-15T00:53:00;35.58;;;30.88;;
69087;SDS011;56190;43.562;5.036;2023-02-15T00:55:25;36.03;;;31.85;;
69087;SDS011;56190;43.562;5.036;2023-02-15T00:57:51;34.67;;;29.80;;
69087;SDS011;56190;43.562;5.036;2023-02-15T01:00:16;35.97;;;31.67;;
69087;SDS011;56190;43.562;5.036;2023-02-15T01:02:41;33.65;;;28.65;;
69087;SDS011;56190;43.562;5.036;2023-02-15T01:05:07;33.42;;;28.85;;
69087;SDS011;56190;43.562;5.036;2023-02-15T01:07:32;33.92;;;29.95;;
69087;SDS011;56190;43.562;5.036;2023-02-15T01:09:57;37.55;;;32.50;;
69087;SDS011;56190;43.562;5.036;2023-02-15T01:12:22;35.50;;;30.95;;
69087;SDS011;56190;43.562;5.036;2023-02-15T01:14:48;36.33;;;31.95;;
69087;SDS011;56190;43.562;5.036;2023-02-15T01:17:13;36.72;;;32.72;;
69087;SDS011;56190;43.562;5.036;2023-02-15T01:19:38;38.80;;;33.25;;
69087;SDS011;56190;43.562;5.036;2023-02-15T01:22:03;41.38;;;35.38;;
69087;SDS011;56190;43.562;5.036;2023-02-15T01:24:29;38.50;;;34.30;;
69087;SDS011;56190;43.562;5.036;2023-02-15T01:26:54;39.17;;;32.75;;
69087;SDS011;56190;43.562;5.036;2023-02-15T01:29:19;47.40;;;38.65;;
69087;SDS011;56190;43.562;5.036;2023-02-15T01:31:44;43.63;;;37.40;;
69087;SDS011;56190;43.562;5.036;2023-02-15T01:34:10;37.30;;;32.55;;
69087;SDS011;56190;43.562;5.036;2023-02-15T01:36:35;35.63;;;31.77;;
69087;SDS011;56190;43.562;5.036;2023-02-15T01:39:01;45.63;;;38.30;;
69087;SDS011;56190;43.562;5.036;2023-02-15T01:41:26;44.08;;;39.28;;
69087;SDS011;56190;43.562;5.036;2023-02-15T01:43:56;38.15;;;33.92;;
69087;SDS011;56190;43.562;5.036;2023-02-15T01:46:23;35.33;;;30.42;;
69087;SDS011;56190;43.562;5.036;2023-02-15T01:48:54;34.53;;;29.15;;
69087;SDS011;56190;43.562;5.036;2023-02-15T01:51:21;39.42;;;32.88;;
69087;SDS011;56190;43.562;5.036;2023-02-15T01:53:49;40.13;;;32.10;;
69087;SDS011;56190;43.562;5.036;2023-02-15T01:56:20;36.70;;;31.13;;
69087;SDS011;56190;43.562;5.036;2023-02-15T01:58:47;33.67;;;29.88;;
69087;SDS011;56190;43.562;5.036;2023-02-15T02:01:12;34.00;;;29.95;;
69087;SDS011;56190;43.562;5.036;2023-02-15T02:06:22;35.90;;;30.23;;
69087;SDS011;56190;43.562;5.036;2023-02-15T02:08:47;38.47;;;33.38;;
69087;SDS011;56190;43.562;5.036;2023-02-15T02:11:13;38.08;;;31.90;;
69087;SDS011;56190;43.562;5.036;2023-02-15T02:13:40;37.70;;;32.80;;
69087;SDS011;56190;43.562;5.036;2023-02-15T02:23:45;34.72;;;30.92;;
69087;SDS011;56190;43.562;5.036;2023-02-15T02:28:56;39.35;;;33.13;;
69087;SDS011;56190;43.562;5.036;2023-02-15T02:39:04;37.80;;;31.63;;
69087;SDS011;56190;43.562;5.036;2023-02-15T02:46:51;35.33;;;31.38;;
69087;SDS011;56190;43.562;5.036;2023-02-15T02:49:27;34.42;;;30.80;;
69087;SDS011;56190;43.562;5.036;2023-02-15T02:51:59;36.05;;;32.13;;
69087;SDS011;56190;43.562;5.036;2023-02-15T02:54:25;35.00;;;30.98;;
69087;SDS011;56190;43.562;5.036;2023-02-15T02:56:50;37.17;;;32.25;;
69087;SDS011;56190;43.562;5.036;2023-02-15T02:59:20;35.90;;;30.92;;
69087;SDS011;56190;43.562;5.036;2023-02-15T03:01:47;39.90;;;33.17;;
69087;SDS011;56190;43.562;5.036;2023-02-15T03:04:15;39.05;;;32.58;;
69087;SDS011;56190;43.562;5.036;2023-02-15T03:06:52;35.10;;;30.30;;
69087;SDS011;56190;43.562;5.036;2023-02-15T03:09:21;33.92;;;30.27;;
69087;SDS011;56190;43.562;5.036;2023-02-15T03:11:48;36.97;;;30.42;;
69087;SDS011;56190;43.562;5.036;2023-02-15T03:14:14;33.70;;;29.58;;
69087;SDS011;56190;43.562;5.036;2023-02-15T03:16:40;36.83;;;31.15;;
69087;SDS011;56190;43.562;5.036;2023-02-15T03:19:10;35.83;;;31.33;;
69087;SDS011;56190;43.562;5.036;2023-02-15T03:21:39;36.67;;;31.13;;
69087;SDS011;56190;43.562;5.036;2023-02-15T03:24:24;36.00;;;31.50;;
69087;SDS011;56190;43.562;5.036;2023-02-15T03:26:50;34.58;;;30.80;;
69087;SDS011;56190;43.562;5.036;2023-02-15T03:29:18;38.97;;;31.73;;
69087;SDS011;56190;43.562;5.036;2023-02-15T03:31:45;32.65;;;29.10;;
69087;SDS011;56190;43.562;5.036;2023-02-15T03:34:12;34.78;;;29.90;;
69087;SDS011;56190;43.562;5.036;2023-02-15T03:36:43;36.35;;;31.27;;
69087;SDS011;56190;43.562;5.036;2023-02-15T03:39:17;40.70;;;32.72;;
69087;SDS011;56190;43.562;5.036;2023-02-15T03:44:28;41.70;;;33.28;;
69087;SDS011;56190;43.562;5.036;2023-02-15T03:47:04;42.20;;;35.03;;
69087;SDS011;56190;43.562;5.036;2023-02-15T03:51:56;39.50;;;33.63;;
69087;SDS011;56190;43.562;5.036;2023-02-15T03:54:26;38.78;;;33.33;;
69087;SDS011;56190;43.562;5.036;2023-02-15T03:57:26;43.67;;;35.78;;
69087;SDS011;56190;43.562;5.036;2023-02-15T04:05:34;48.30;;;38.65;;
69087;SDS011;56190;43.562;5.036;2023-02-15T04:08:00;42.40;;;36.33;;
69087;SDS011;56190;43.562;5.036;2023-02-15T04:10:25;43.90;;;37.13;;
69087;SDS011;56190;43.562;5.036;2023-02-15T04:13:09;44.25;;;37.22;;
69087;SDS011;56190;43.562;5.036;2023-02-15T04:15:34;41.13;;;34.78;;
69087;SDS011;56190;43.562;5.036;2023-02-15T04:18:18;43.03;;;36.08;;
69087;SDS011;56190;43.562;5.036;2023-02-15T04:20:44;37.63;;;33.00;;
69087;SDS011;56190;43.562;5.036;2023-02-15T04:23:28;44.45;;;37.13;;
69087;SDS011;56190;43.562;5.036;2023-02-15T04:26:12;37.35;;;32.90;;
69087;SDS011;56190;43.562;5.036;2023-02-15T04:28:37;38.42;;;33.45;;
69087;SDS011;56190;43.562;5.036;2023-02-15T04:31:02;36.70;;;32.40;;
69087;SDS011;56190;43.562;5.036;2023-02-15T04:33:28;35.65;;;31.67;;
69087;SDS011;56190;43.562;5.036;2023-02-15T04:35:53;41.75;;;35.67;;
69087;SDS011;56190;43.562;5.036;2023-02-15T04:38:18;35.08;;;31.17;;
69087;SDS011;56190;43.562;5.036;2023-02-15T04:40:43;34.35;;;30.60;;
69087;SDS011;56190;43.562;5.036;2023-02-15T04:43:09;33.83;;;29.88;;
69087;SDS011;56190;43.562;5.036;2023-02-15T04:45:34;37.67;;;30.00;;
69087;SDS011;56190;43.562;5.036;2023-02-15T04:47:59;34.42;;;29.20;;
69087;SDS011;56190;43.562;5.036;2023-02-15T04:50:25;34.30;;;30.13;;
69087;SDS011;56190;43.562;5.036;2023-02-15T04:52:50;36.53;;;30.92;;
69087;SDS011;56190;43.562;5.036;2023-02-15T04:55:15;34.03;;;29.73;;
69087;SDS011;56190;43.562;5.036;2023-02-15T04:57:40;39.22;;;31.75;;
69087;SDS011;56190;43.562;5.036;2023-02-15T05:00:06;34.33;;;29.40;;
69087;SDS011;56190;43.562;5.036;2023-02-15T05:02:33;39.83;;;32.70;;
69087;SDS011;56190;43.562;5.036;2023-02-15T05:04:58;36.80;;;31.50;;
69087;SDS011;56190;43.562;5.036;2023-02-15T05:07:24;34.65;;;29.90;;
69087;SDS011;56190;43.562;5.036;2023-02-15T05:09:49;36.22;;;31.02;;
69087;SDS011;56190;43.562;5.036;2023-02-15T05:12:14;41.33;;;32.45;;
69087;SDS011;56190;43.562;5.036;2023-02-15T05:14:39;37.10;;;32.30;;
69087;SDS011;56190;43.562;5.036;2023-02-15T05:17:05;41.35;;;32.63;;
69087;SDS011;56190;43.562;5.036;2023-02-15T05:19:30;43.25;;;34.05;;
69087;SDS011;56190;43.562;5.036;2023-02-15T05:21:55;44.65;;;35.05;;
69087;SDS011;56190;43.562;5.036;2023-02-15T05:24:21;44.97;;;35.90;;
69087;SDS011;56190;43.562;5.036;2023-02-15T05:27:04;53.70;;;39.58;;
69087;SDS011;56190;43.562;5.036;2023-02-15T05:29:48;47.88;;;36.17;;
69087;SDS011;56190;43.562;5.036;2023-02-15T05:32:14;43.80;;;34.50;;
69087;SDS011;56190;43.562;5.036;2023-02-15T05:34:39;44.28;;;35.13;;
69087;SDS011;56190;43.562;5.036;2023-02-15T05:37:04;42.78;;;33.53;;
69087;SDS011;56190;43.562;5.036;2023-02-15T05:39:30;43.03;;;32.88;;
69087;SDS011;56190;43.562;5.036;2023-02-15T05:41:57;40.60;;;31.95;;
69087;SDS011;56190;43.562;5.036;2023-02-15T05:44:23;45.58;;;34.85;;
69087;SDS011;56190;43.562;5.036;2023-02-15T05:46:49;46.38;;;34.03;;
69087;SDS011;56190;43.562;5.036;2023-02-15T05:49:14;46.40;;;35.20;;
69087;SDS011;56190;43.562;5.036;2023-02-15T05:51:39;49.92;;;34.28;;
69087;SDS011;56190;43.562;5.036;2023-02-15T05:54:05;46.75;;;34.60;;
69087;SDS011;56190;43.562;5.036;2023-02-15T05:56:30;49.35;;;35.22;;
69087;SDS011;56190;43.562;5.036;2023-02-15T05:58:56;45.08;;;34.05;;
69087;SDS011;56190;43.562;5.036;2023-02-15T06:01:21;47.30;;;35.25;;
69087;SDS011;56190;43.562;5.036;2023-02-15T06:03:48;46.53;;;34.03;;
69087;SDS011;56190;43.562;5.036;2023-02-15T06:06:13;51.35;;;35.45;;
69087;SDS011;56190;43.562;5.036;2023-02-15T06:08:39;46.92;;;33.95;;
69087;SDS011;56190;43.562;5.036;2023-02-15T06:11:04;45.63;;;34.53;;
69087;SDS011;56190;43.562;5.036;2023-02-15T06:13:30;49.97;;;36.03;;
69087;SDS011;56190;43.562;5.036;2023-02-15T06:15:55;46.17;;;33.95;;
69087;SDS011;56190;43.562;5.036;2023-02-15T06:18:20;51.22;;;35.97;;
69087;SDS011;56190;43.562;5.036;2023-02-15T06:20:46;50.83;;;35.42;;
69087;SDS011;56190;43.562;5.036;2023-02-15T06:23:11;44.03;;;31.63;;
69087;SDS011;56190;43.562;5.036;2023-02-15T06:25:37;49.60;;;34.38;;
69087;SDS011;56190;43.562;5.036;2023-02-15T06:28:02;42.72;;;29.75;;
69087;SDS011;56190;43.562;5.036;2023-02-15T06:30:27;40.67;;;29.35;;
69087;SDS011;56190;43.562;5.036;2023-02-15T06:32:53;44.67;;;30.20;;
69087;SDS011;56190;43.562;5.036;2023-02-15T06:35:18;39.92;;;27.60;;
69087;SDS011;56190;43.562;5.036;2023-02-15T06:37:45;38.03;;;28.58;;
69087;SDS011;56190;43.562;5.036;2023-02-15T06:40:10;37.00;;;26.67;;
69087;SDS011;56190;43.562;5.036;2023-02-15T06:42:35;35.50;;;27.05;;
69087;SDS011;56190;43.562;5.036;2023-02-15T06:45:01;36.15;;;25.90;;
69087;SDS011;56190;43.562;5.036;2023-02-15T06:47:26;36.15;;;26.23;;
69087;SDS011;56190;43.562;5.036;2023-02-15T06:49:51;38.20;;;26.35;;
69087;SDS011;56190;43.562;5.036;2023-02-15T06:52:16;34.03;;;25.38;;
69087;SDS011;56190;43.562;5.036;2023-02-15T06:54:41;35.90;;;25.08;;
69087;SDS011;56190;43.562;5.036;2023-02-15T06:57:07;33.85;;;24.52;;
69087;SDS011;56190;43.562;5.036;2023-02-15T06:59:34;38.60;;;27.77;;
69087;SDS011;56190;43.562;5.036;2023-02-15T07:01:59;34.03;;;24.50;;
69087;SDS011;56190;43.562;5.036;2023-02-15T07:04:24;33.53;;;24.20;;
69087;SDS011;56190;43.562;5.036;2023-02-15T07:06:50;37.50;;;26.73;;
69087;SDS011;56190;43.562;5.036;2023-02-15T07:09:15;33.90;;;24.20;;
69087;SDS011;56190;43.562;5.036;2023-02-15T07:11:41;36.20;;;25.85;;
69087;SDS011;56190;43.562;5.036;2023-02-15T07:14:24;32.80;;;23.88;;
69087;SDS011;56190;43.562;5.036;2023-02-15T07:16:49;38.22;;;26.55;;
69087;SDS011;56190;43.562;5.036;2023-02-15T07:19:15;36.33;;;25.45;;
69087;SDS011;56190;43.562;5.036;2023-02-15T07:21:40;35.50;;;25.60;;
69087;SDS011;56190;43.562;5.036;2023-02-15T07:24:05;33.35;;;23.85;;
69087;SDS011;56190;43.562;5.036;2023-02-15T07:26:31;35.30;;;25.83;;
69087;SDS011;56190;43.562;5.036;2023-02-15T07:28:57;33.45;;;24.70;;
69087;SDS011;56190;43.562;5.036;2023-02-15T07:31:22;35.45;;;24.75;;
69087;SDS011;56190;43.562;5.036;2023-02-15T07:33:47;33.58;;;24.27;;
69087;SDS011;56190;43.562;5.036;2023-02-15T07:36:12;34.22;;;24.55;;
69087;SDS011;56190;43.562;5.036;2023-02-15T07:38:38;35.25;;;25.20;;
69087;SDS011;56190;43.562;5.036;2023-02-15T07:41:04;34.90;;;25.70;;
69087;SDS011;56190;43.562;5.036;2023-02-15T07:43:32;33.20;;;25.55;;
69087;SDS011;56190;43.562;5.036;2023-02-15T07:46:00;36.85;;;26.38;;
69087;SDS011;56190;43.562;5.036;2023-02-15T07:48:26;35.33;;;25.88;;
69087;SDS011;56190;43.562;5.036;2023-02-15T07:50:51;36.40;;;26.15;;
69087;SDS011;56190;43.562;5.036;2023-02-15T07:53:17;40.10;;;28.83;;
69087;SDS011;56190;43.562;5.036;2023-02-15T07:55:42;39.20;;;28.38;;
69087;SDS011;56190;43.562;5.036;2023-02-15T07:58:07;39.40;;;28.45;;
69087;SDS011;56190;43.562;5.036;2023-02-15T08:00:32;37.90;;;27.92;;
69087;SDS011;56190;43.562;5.036;2023-02-15T08:03:17;37.92;;;27.00;;
69087;SDS011;56190;43.562;5.036;2023-02-15T08:05:44;34.45;;;25.58;;
69087;SDS011;56190;43.562;5.036;2023-02-15T08:08:10;35.42;;;26.27;;
69087;SDS011;56190;43.562;5.036;2023-02-15T08:10:58;33.97;;;25.42;;
69087;SDS011;56190;43.562;5.036;2023-02-15T08:13:42;32.28;;;25.67;;
69087;SDS011;56190;43.562;5.036;2023-02-15T08:16:26;30.33;;;23.65;;
69087;SDS011;56190;43.562;5.036;2023-02-15T08:18:52;31.13;;;25.25;;
69087;SDS011;56190;43.562;5.036;2023-02-15T08:21:18;30.98;;;23.92;;
69087;SDS011;56190;43.562;5.036;2023-02-15T08:23:43;27.10;;;21.95;;
69087;SDS011;56190;43.562;5.036;2023-02-15T08:26:08;29.48;;;22.58;;
69087;SDS011;56190;43.562;5.036;2023-02-15T08:28:34;26.17;;;20.92;;
69087;SDS011;56190;43.562;5.036;2023-02-15T08:31:06;24.38;;;20.10;;
69087;SDS011;56190;43.562;5.036;2023-02-15T08:33:31;23.30;;;19.65;;
69087;SDS011;56190;43.562;5.036;2023-02-15T08:35:56;23.52;;;18.52;;
69087;SDS011;56190;43.562;5.036;2023-02-15T08:38:26;23.90;;;19.15;;
69087;SDS011;56190;43.562;5.036;2023-02-15T08:40:51;20.85;;;17.95;;
69087;SDS011;56190;43.562;5.036;2023-02-15T08:43:17;22.55;;;17.90;;
69087;SDS011;56190;43.562;5.036;2023-02-15T08:45:42;21.05;;;17.55;;
69087;SDS011;56190;43.562;5.036;2023-02-15T08:48:07;19.08;;;16.73;;
69087;SDS011;56190;43.562;5.036;2023-02-15T08:50:32;18.33;;;15.75;;
69087;SDS011;56190;43.562;5.036;2023-02-15T08:52:58;18.35;;;16.25;;
69087;SDS011;56190;43.562;5.036;2023-02-15T08:55:23;17.80;;;15.75;;
69087;SDS011;56190;43.562;5.036;2023-02-15T08:57:48;18.77;;;15.88;;
69087;SDS011;56190;43.562;5.036;2023-02-15T09:00:13;17.38;;;15.52;;
69087;SDS011;56190;43.562;5.036;2023-02-15T09:02:39;17.38;;;14.80;;
69087;SDS011;56190;43.562;5.036;2023-02-15T09:05:05;18.17;;;15.93;;
69087;SDS011;56190;43.562;5.036;2023-02-15T09:07:30;16.65;;;14.85;;
69087;SDS011;56190;43.562;5.036;2023-02-15T09:09:56;17.70;;;15.15;;
69087;SDS011;56190;43.562;5.036;2023-02-15T09:12:21;17.33;;;14.40;;
69087;SDS011;56190;43.562;5.036;2023-02-15T09:14:46;18.42;;;15.32;;
69087;SDS011;56190;43.562;5.036;2023-02-15T09:17:11;16.58;;;14.43;;
69087;SDS011;56190;43.562;5.036;2023-02-15T09:19:37;17.02;;;15.23;;
69087;SDS011;56190;43.562;5.036;2023-02-15T09:22:02;18.25;;;15.55;;
69087;SDS011;56190;43.562;5.036;2023-02-15T09:24:27;17.20;;;15.27;;
69087;SDS011;56190;43.562;5.036;2023-02-15T09:26:56;17.63;;;15.73;;
69087;SDS011;56190;43.562;5.036;2023-02-15T09:29:21;19.17;;;16.27;;
69087;SDS011;56190;43.562;5.036;2023-02-15T09:31:48;19.38;;;17.40;;
69087;SDS011;56190;43.562;5.036;2023-02-15T09:34:15;18.77;;;16.77;;
69087;SDS011;56190;43.562;5.036;2023-02-15T09:36:41;18.20;;;16.27;;
69087;SDS011;56190;43.562;5.036;2023-02-15T09:39:08;20.40;;;18.05;;
69087;SDS011;56190;43.562;5.036;2023-02-15T09:41:42;19.98;;;17.42;;
69087;SDS011;56190;43.562;5.036;2023-02-15T09:46:51;23.13;;;19.05;;
69087;SDS011;56190;43.562;5.036;2023-02-15T09:49:24;23.70;;;19.30;;
69087;SDS011;56190;43.562;5.036;2023-02-15T09:52:01;23.90;;;20.15;;
69087;SDS011;56190;43.562;5.036;2023-02-15T09:57:16;26.05;;;22.15;;
69087;SDS011;56190;43.562;5.036;2023-02-15T10:00:06;33.17;;;24.45;;
69087;SDS011;56190;43.562;5.036;2023-02-15T10:12:49;20.50;;;18.17;;
69087;SDS011;56190;43.562;5.036;2023-02-15T10:20:59;19.27;;;15.95;;
69087;SDS011;56190;43.562;5.036;2023-02-15T10:26:01;18.85;;;15.93;;
69087;SDS011;56190;43.562;5.036;2023-02-15T10:31:24;17.98;;;16.02;;
69087;SDS011;56190;43.562;5.036;2023-02-15T10:58:08;10.05;;;8.93;;
69087;SDS011;56190;43.562;5.036;2023-02-15T11:00:41;14.85;;;12.95;;
69087;SDS011;56190;43.562;5.036;2023-02-15T11:03:16;15.65;;;13.43;;
69087;SDS011;56190;43.562;5.036;2023-02-15T11:06:04;13.27;;;11.88;;
69087;SDS011;56190;43.562;5.036;2023-02-15T11:08:31;16.23;;;14.45;;
69087;SDS011;56190;43.562;5.036;2023-02-15T11:11:04;17.00;;;14.38;;
69087;SDS011;56190;43.562;5.036;2023-02-15T11:13:32;17.50;;;15.60;;
69087;SDS011;56190;43.562;5.036;2023-02-15T11:16:43;15.93;;;13.98;;
69087;SDS011;56190;43.562;5.036;2023-02-15T11:18:54;16.85;;;14.38;;
69087;SDS011;56190;43.562;5.036;2023-02-15T11:21:34;16.90;;;14.68;;
69087;SDS011;56190;43.562;5.036;2023-02-15T11:28:58;17.35;;;15.38;;
69087;SDS011;56190;43.562;5.036;2023-02-15T11:31:37;18.85;;;15.27;;
69087;SDS011;56190;43.562;5.036;2023-02-15T11:34:10;18.70;;;15.70;;
69087;SDS011;56190;43.562;5.036;2023-02-15T11:36:37;17.63;;;15.73;;
69087;SDS011;56190;43.562;5.036;2023-02-15T11:39:08;20.63;;;16.77;;
69087;SDS011;56190;43.562;5.036;2023-02-15T11:41:35;17.80;;;15.25;;
69087;SDS011;56190;43.562;5.036;2023-02-15T11:46:27;20.40;;;18.08;;
69087;SDS011;56190;43.562;5.036;2023-02-15T11:48:53;19.40;;;16.67;;
69087;SDS011;56190;43.562;5.036;2023-02-15T11:51:20;20.75;;;18.02;;
69087;SDS011;56190;43.562;5.036;2023-02-15T11:53:47;22.33;;;18.45;;
69087;SDS011;56190;43.562;5.036;2023-02-15T11:56:16;18.45;;;16.25;;
69087;SDS011;56190;43.562;5.036;2023-02-15T11:58:45;18.20;;;16.30;;
69087;SDS011;56190;43.562;5.036;2023-02-15T12:03:44;17.67;;;15.65;;
69087;SDS011;56190;43.562;5.036;2023-02-15T12:06:16;18.85;;;15.55;;
69087;SDS011;56190;43.562;5.036;2023-02-15T12:08:44;17.58;;;15.43;;
69087;SDS011;56190;43.562;5.036;2023-02-15T12:11:12;17.42;;;14.73;;
69087;SDS011;56190;43.562;5.036;2023-02-15T12:13:57;18.17;;;14.98;;
69087;SDS011;56190;43.562;5.036;2023-02-15T12:16:22;18.23;;;15.97;;
69087;SDS011;56190;43.562;5.036;2023-02-15T12:18:47;19.27;;;17.20;;
69087;SDS011;56190;43.562;5.036;2023-02-15T12:21:23;22.48;;;19.10;;
69087;SDS011;56190;43.562;5.036;2023-02-15T12:23:51;19.02;;;16.88;;
69087;SDS011;56190;43.562;5.036;2023-02-15T12:26:30;16.27;;;14.57;;
69087;SDS011;56190;43.562;5.036;2023-02-15T12:28:57;20.20;;;17.00;;
69087;SDS011;56190;43.562;5.036;2023-02-15T12:31:27;20.95;;;18.67;;
69087;SDS011;56190;43.562;5.036;2023-02-15T12:33:53;17.77;;;15.88;;
69087;SDS011;56190;43.562;5.036;2023-02-15T12:36:20;19.60;;;16.60;;
69087;SDS011;56190;43.562;5.036;2023-02-15T12:41:30;17.33;;;15.45;;
69087;SDS011;56190;43.562;5.036;2023-02-15T12:46:29;17.35;;;15.55;;
69087;SDS011;56190;43.562;5.036;2023-02-15T12:49:04;19.58;;;15.50;;
69087;SDS011;56190;43.562;5.036;2023-02-15T12:51:31;20.27;;;16.90;;
69087;SDS011;56190;43.562;5.036;2023-02-15T12:54:16;18.23;;;14.93;;
69087;SDS011;56190;43.562;5.036;2023-02-15T12:56:41;15.93;;;14.30;;
69087;SDS011;56190;43.562;5.036;2023-02-15T12:59:06;15.23;;;13.57;;
69087;SDS011;56190;43.562;5.036;2023-02-15T13:01:32;16.67;;;13.02;;
69087;SDS011;56190;43.562;5.036;2023-02-15T13:04:01;15.45;;;13.15;;
69087;SDS011;56190;43.562;5.036;2023-02-15T13:06:28;13.90;;;12.38;;
69087;SDS011;56190;43.562;5.036;2023-02-15T13:08:55;15.13;;;12.10;;
69087;SDS011;56190;43.562;5.036;2023-02-15T13:11:25;14.20;;;11.82;;
69087;SDS011;56190;43.562;5.036;2023-02-15T13:13:53;13.45;;;11.98;;
69087;SDS011;56190;43.562;5.036;2023-02-15T13:16:19;13.15;;;11.68;;
69087;SDS011;56190;43.562;5.036;2023-02-15T13:18:46;13.38;;;11.18;;
69087;SDS011;56190;43.562;5.036;2023-02-15T13:21:25;12.10;;;10.10;;
69087;SDS011;56190;43.562;5.036;2023-02-15T13:23:52;14.70;;;10.45;;
69087;SDS011;56190;43.562;5.036;2023-02-15T13:26:19;13.55;;;10.10;;
69087;SDS011;56190;43.562;5.036;2023-02-15T13:28:46;12.40;;;10.60;;
69087;SDS011;56190;43.562;5.036;2023-02-15T13:31:15;14.23;;;11.75;;
69087;SDS011;56190;43.562;5.036;2023-02-15T13:33:44;15.65;;;11.60;;
69087;SDS011;56190;43.562;5.036;2023-02-15T13:41:03;13.52;;;11.05;;
69087;SDS011;56190;43.562;5.036;2023-02-15T13:58:48;13.27;;;9.70;;
69087;SDS011;56190;43.562;5.036;2023-02-15T14:08:58;12.30;;;9.10;;
69087;SDS011;56190;43.562;5.036;2023-02-15T14:14:02;12.73;;;9.80;;
69087;SDS011;56190;43.562;5.036;2023-02-15T14:24:20;15.40;;;9.48;;
69087;SDS011;56190;43.562;5.036;2023-02-15T14:31:58;11.55;;;8.98;;
69087;SDS011;56190;43.562;5.036;2023-02-15T14:34:26;12.63;;;9.25;;
69087;SDS011;56190;43.562;5.036;2023-02-15T14:36:54;10.15;;;8.60;;
69087;SDS011;56190;43.562;5.036;2023-02-15T14:47:56;9.95;;;7.15;;
69087;SDS011;56190;43.562;5.036;2023-02-15T14:50:36;8.10;;;7.30;;
69087;SDS011;56190;43.562;5.036;2023-02-15T14:55:46;10.30;;;7.07;;
69087;SDS011;56190;43.562;5.036;2023-02-15T14:58:11;9.48;;;7.13;;
69087;SDS011;56190;43.562;5.036;2023-02-15T15:00:38;9.65;;;7.10;;
69087;SDS011;56190;43.562;5.036;2023-02-15T15:03:10;9.98;;;7.57;;
69087;SDS011;56190;43.562;5.036;2023-02-15T15:05:36;8.60;;;7.60;;
69087;SDS011;56190;43.562;5.036;2023-02-15T15:08:19;8.00;;;6.93;;
69087;SDS011;56190;43.562;5.036;2023-02-15T15:10:46;8.60;;;7.20;;
69087;SDS011;56190;43.562;5.036;2023-02-15T15:15:55;11.18;;;7.70;;
69087;SDS011;56190;43.562;5.036;2023-02-15T15:18:42;7.20;;;6.28;;
69087;SDS011;56190;43.562;5.036;2023-02-15T15:21:08;8.30;;;6.35;;
69087;SDS011;56190;43.562;5.036;2023-02-15T15:23:43;8.90;;;6.38;;
69087;SDS011;56190;43.562;5.036;2023-02-15T15:28:53;10.30;;;7.60;;
69087;SDS011;56190;43.562;5.036;2023-02-15T15:33:59;8.18;;;7.38;;
69087;SDS011;56190;43.562;5.036;2023-02-15T15:39:21;9.10;;;7.35;;
69087;SDS011;56190;43.562;5.036;2023-02-15T15:41:53;10.35;;;7.20;;
69087;SDS011;56190;43.562;5.036;2023-02-15T15:49:42;8.82;;;7.90;;
69087;SDS011;56190;43.562;5.036;2023-02-15T15:52:11;9.10;;;7.82;;
69087;SDS011;56190;43.562;5.036;2023-02-15T15:54:37;12.15;;;7.80;;
69087;SDS011;56190;43.562;5.036;2023-02-15T15:57:03;11.02;;;9.35;;
69087;SDS011;56190;43.562;5.036;2023-02-15T15:59:30;10.27;;;8.43;;
69087;SDS011;56190;43.562;5.036;2023-02-15T16:01:56;12.25;;;9.52;;
69087;SDS011;56190;43.562;5.036;2023-02-15T16:04:29;14.32;;;10.98;;
69087;SDS011;56190;43.562;5.036;2023-02-15T16:06:55;13.80;;;9.63;;
69087;SDS011;56190;43.562;5.036;2023-02-15T16:09:25;13.77;;;11.10;;
69087;SDS011;56190;43.562;5.036;2023-02-15T16:11:54;12.65;;;9.75;;
69087;SDS011;56190;43.562;5.036;2023-02-15T16:16:51;14.98;;;11.90;;
69087;SDS011;56190;43.562;5.036;2023-02-15T16:19:18;13.52;;;10.32;;
69087;SDS011;56190;43.562;5.036;2023-02-15T16:21:44;25.15;;;17.77;;
69087;SDS011;56190;43.562;5.036;2023-02-15T16:26:47;17.05;;;12.98;;
69087;SDS011;56190;43.562;5.036;2023-02-15T16:29:18;13.32;;;11.40;;
69087;SDS011;56190;43.562;5.036;2023-02-15T16:34:25;14.48;;;11.20;;
69087;SDS011;56190;43.562;5.036;2023-02-15T16:37:11;17.95;;;11.05;;
69087;SDS011;56190;43.562;5.036;2023-02-15T16:39:38;16.63;;;12.20;;
69087;SDS011;56190;43.562;5.036;2023-02-15T16:42:05;15.57;;;12.60;;
69087;SDS011;56190;43.562;5.036;2023-02-15T16:44:31;15.27;;;12.50;;
69087;SDS011;56190;43.562;5.036;2023-02-15T16:46:57;14.70;;;12.50;;
69087;SDS011;56190;43.562;5.036;2023-02-15T16:49:27;12.65;;;10.40;;
69087;SDS011;56190;43.562;5.036;2023-02-15T16:52:03;12.50;;;9.77;;
69087;SDS011;56190;43.562;5.036;2023-02-15T16:54:31;12.35;;;8.68;;
69087;SDS011;56190;43.562;5.036;2023-02-15T16:56:57;10.40;;;7.82;;
69087;SDS011;56190;43.562;5.036;2023-02-15T16:59:36;9.63;;;7.55;;
69087;SDS011;56190;43.562;5.036;2023-02-15T17:02:05;11.15;;;8.23;;
69087;SDS011;56190;43.562;5.036;2023-02-15T17:04:31;9.32;;;7.70;;
69087;SDS011;56190;43.562;5.036;2023-02-15T17:07:17;10.93;;;8.68;;
69087;SDS011;56190;43.562;5.036;2023-02-15T17:09:49;12.93;;;8.40;;
69087;SDS011;56190;43.562;5.036;2023-02-15T17:14:59;13.32;;;10.52;;
69087;SDS011;56190;43.562;5.036;2023-02-15T17:17:24;13.93;;;11.35;;
69087;SDS011;56190;43.562;5.036;2023-02-15T17:19:51;16.58;;;13.70;;
69087;SDS011;56190;43.562;5.036;2023-02-15T17:22:19;16.80;;;14.98;;
69087;SDS011;56190;43.562;5.036;2023-02-15T17:24:45;19.05;;;16.98;;
69087;SDS011;56190;43.562;5.036;2023-02-15T17:27:14;19.38;;;17.35;;
69087;SDS011;56190;43.562;5.036;2023-02-15T17:29:41;18.38;;;16.42;;
69087;SDS011;56190;43.562;5.036;2023-02-15T17:32:14;17.02;;;15.23;;
69087;SDS011;56190;43.562;5.036;2023-02-15T17:37:09;15.45;;;13.85;;